createdAt,value
2022-12-17T00:01:48.843Z,7.07
2022-12-17T00:04:33.967Z,7.20
2022-12-17T00:07:19.171Z,7.03
2022-12-17T00:10:04.451Z,6.67
2022-12-17T00:12:49.900Z,6.90
2022-12-17T00:15:34.953Z,6.93
2022-12-17T00:18:26.270Z,7.93
2022-12-17T00:21:15.405Z,7.30
2022-12-17T00:24:01.184Z,7.80
2022-12-17T00:26:46.587Z,6.77
2022-12-17T00:29:31.787Z,6.90
2022-12-17T00:32:17.191Z,7.13
2022-12-17T00:35:02.179Z,7.30
2022-12-17T00:37:47.505Z,8.00
2022-12-17T00:40:32.693Z,7.70
2022-12-17T00:43:27.484Z,7.10
2022-12-17T00:46:12.719Z,7.30
2022-12-17T00:48:57.961Z,6.87
2022-12-17T00:51:43.199Z,7.23
2022-12-17T00:54:28.395Z,7.17
2022-12-17T00:57:13.633Z,7.23
2022-12-17T00:59:58.866Z,7.03
2022-12-17T01:02:44.264Z,8.30
2022-12-17T01:05:29.614Z,6.50
2022-12-17T01:08:14.967Z,7.43
2022-12-17T01:11:00.073Z,8.17
2022-12-17T01:13:45.099Z,7.47
2022-12-17T01:16:31.903Z,7.23
2022-12-17T01:19:17.636Z,7.80
2022-12-17T01:22:03.871Z,7.30
2022-12-17T01:24:48.793Z,7.03
2022-12-17T01:27:33.915Z,7.60
2022-12-17T01:30:19.140Z,7.53
2022-12-17T01:33:04.127Z,7.90
2022-12-17T01:35:49.320Z,7.53
2022-12-17T01:38:37.034Z,7.23
2022-12-17T01:41:23.125Z,7.57
2022-12-17T01:44:08.403Z,8.30
2022-12-17T01:46:59.428Z,7.20
2022-12-17T01:49:44.632Z,7.03
2022-12-17T01:52:32.899Z,7.67
2022-12-17T01:55:18.371Z,6.83
2022-12-17T01:58:03.523Z,7.07
2022-12-17T02:00:48.819Z,7.37
2022-12-17T02:03:35.443Z,8.07
2022-12-17T02:06:30.981Z,7.83
2022-12-17T02:09:19.538Z,7.80
2022-12-17T02:12:29.085Z,7.90
2022-12-17T02:15:24.933Z,7.40
2022-12-17T02:18:15.246Z,8.90
2022-12-17T02:21:07.748Z,7.33
2022-12-17T02:23:56.539Z,7.93
2022-12-17T02:26:54.051Z,7.77
2022-12-17T02:29:39.854Z,7.07
2022-12-17T02:32:25.007Z,7.43
2022-12-17T02:35:10.441Z,6.83
2022-12-17T02:37:55.625Z,8.03
2022-12-17T02:40:41.386Z,7.13
2022-12-17T02:43:26.983Z,7.97
2022-12-17T02:46:12.285Z,7.70
2022-12-17T02:48:57.570Z,8.20
2022-12-17T02:51:50.706Z,7.50
2022-12-17T02:54:35.899Z,8.57
2022-12-17T02:57:21.273Z,8.10
2022-12-17T03:00:06.417Z,7.87
2022-12-17T03:02:51.799Z,8.63
2022-12-17T03:05:44.935Z,7.97
2022-12-17T03:08:30.804Z,8.77
2022-12-17T03:11:15.685Z,8.00
2022-12-17T03:14:00.807Z,8.50
2022-12-17T03:16:46.173Z,9.17
2022-12-17T03:19:31.022Z,7.83
2022-12-17T03:22:15.958Z,7.40
2022-12-17T03:25:01.143Z,8.37
2022-12-17T03:27:46.463Z,7.50
2022-12-17T03:30:35.752Z,7.23
2022-12-17T03:33:21.301Z,7.77
2022-12-17T03:36:06.586Z,7.97
2022-12-17T03:38:56.174Z,7.20
2022-12-17T03:41:41.351Z,8.53
2022-12-17T03:44:26.440Z,7.63
2022-12-17T03:47:11.550Z,8.13
2022-12-17T03:49:56.818Z,8.23
2022-12-17T03:52:42.107Z,8.20
2022-12-17T03:55:27.273Z,8.43
2022-12-17T03:58:12.460Z,7.53
2022-12-17T04:00:57.768Z,8.57
2022-12-17T04:03:42.993Z,8.23
2022-12-17T04:06:28.349Z,8.53
2022-12-17T04:09:13.329Z,8.03
2022-12-17T04:11:58.918Z,7.70
2022-12-17T04:14:43.947Z,8.63
2022-12-17T04:17:29.172Z,9.53
2022-12-17T04:20:14.333Z,8.33
2022-12-17T04:22:59.658Z,8.40
2022-12-17T04:25:44.817Z,8.33
2022-12-17T04:28:32.826Z,7.83
2022-12-17T04:31:18.075Z,8.10
2022-12-17T04:34:03.283Z,8.30
2022-12-17T04:36:48.538Z,8.10
2022-12-17T04:39:33.744Z,8.77
2022-12-17T04:42:18.739Z,9.30
2022-12-17T04:45:03.947Z,8.57
2022-12-17T04:47:49.232Z,8.30
2022-12-17T04:50:34.527Z,9.20
2022-12-17T04:53:23.310Z,8.70
2022-12-17T04:56:08.545Z,7.87
2022-12-17T04:58:53.718Z,8.33
2022-12-17T05:01:38.975Z,8.37
2022-12-17T05:04:24.344Z,8.83
2022-12-17T05:07:09.527Z,8.87
2022-12-17T05:09:54.745Z,8.37
2022-12-17T05:12:40.009Z,8.07
2022-12-17T05:15:25.676Z,8.87
2022-12-17T05:18:10.930Z,8.10
2022-12-17T05:20:56.090Z,8.40
2022-12-17T05:23:41.385Z,9.03
2022-12-17T05:26:32.643Z,7.53
2022-12-17T05:29:17.964Z,8.57
2022-12-17T05:32:03.018Z,8.17
2022-12-17T05:34:48.463Z,8.53
2022-12-17T05:37:33.635Z,8.03
2022-12-17T05:40:18.991Z,8.70
2022-12-17T05:43:21.068Z,8.97
2022-12-17T05:46:06.416Z,8.47
2022-12-17T05:48:51.635Z,8.70
2022-12-17T05:51:38.841Z,8.30
2022-12-17T05:54:24.554Z,8.37
2022-12-17T05:57:09.656Z,8.43
2022-12-17T05:59:54.915Z,7.93
2022-12-17T06:02:40.290Z,8.73
2022-12-17T06:05:26.208Z,8.63
2022-12-17T06:08:11.409Z,8.47
2022-12-17T06:10:56.839Z,8.13
2022-12-17T06:13:42.018Z,8.47
2022-12-17T06:16:27.285Z,8.27
2022-12-17T06:19:12.395Z,8.00
2022-12-17T06:21:57.589Z,7.23
2022-12-17T06:24:45.896Z,7.23
2022-12-17T06:27:31.515Z,7.47
2022-12-17T06:30:18.815Z,8.83
2022-12-17T06:33:24.177Z,9.70
2022-12-17T06:36:11.035Z,7.67
2022-12-17T06:38:56.093Z,8.47
2022-12-17T06:41:41.180Z,7.77
2022-12-17T06:44:26.384Z,7.87
2022-12-17T06:47:11.700Z,16.27
2022-12-17T06:50:01.083Z,7.60
2022-12-17T06:52:46.496Z,8.07
2022-12-17T06:55:31.888Z,7.77
2022-12-17T06:58:17.967Z,8.77
2022-12-17T07:01:03.682Z,8.40
2022-12-17T07:03:48.789Z,8.20
2022-12-17T07:06:34.015Z,7.77
2022-12-17T07:09:19.184Z,8.50
2022-12-17T07:12:04.504Z,8.20
2022-12-17T07:14:49.789Z,17.87
2022-12-17T07:17:34.905Z,19.87
2022-12-17T07:20:19.950Z,21.73
2022-12-17T07:23:05.315Z,23.00
2022-12-17T07:25:50.429Z,23.13
2022-12-17T07:28:37.312Z,22.73
2022-12-17T07:31:22.462Z,26.83
2022-12-17T07:34:15.329Z,25.60
2022-12-17T07:37:00.566Z,24.93
2022-12-17T07:39:45.943Z,25.43
2022-12-17T07:42:31.131Z,25.07
2022-12-17T07:45:16.191Z,23.23
2022-12-17T07:48:01.376Z,25.13
2022-12-17T07:50:46.620Z,21.60
2022-12-17T07:53:31.708Z,21.57
2022-12-17T07:56:16.818Z,21.67
2022-12-17T07:59:01.867Z,20.73
2022-12-17T08:01:47.005Z,21.80
2022-12-17T08:04:32.337Z,20.63
2022-12-17T08:07:17.511Z,19.33
2022-12-17T08:10:02.825Z,19.77
2022-12-17T08:12:47.853Z,19.07
2022-12-17T08:15:33.169Z,19.90
2022-12-17T08:18:26.116Z,17.40
2022-12-17T08:21:11.681Z,19.27
2022-12-17T08:23:56.786Z,18.10
2022-12-17T08:26:47.281Z,15.77
2022-12-17T08:29:33.071Z,17.10
2022-12-17T08:32:18.036Z,16.87
2022-12-17T08:35:03.284Z,15.33
2022-12-17T08:37:49.312Z,15.27
2022-12-17T08:40:34.484Z,14.97
2022-12-17T08:43:19.825Z,14.23
2022-12-17T08:46:08.488Z,15.10
2022-12-17T08:48:53.694Z,13.60
2022-12-17T08:51:38.768Z,13.13
2022-12-17T08:54:23.804Z,14.53
2022-12-17T08:57:09.059Z,22.93
2022-12-17T08:59:58.657Z,26.10
2022-12-17T09:02:43.906Z,26.77
2022-12-17T09:05:29.366Z,24.27
2022-12-17T09:08:21.567Z,22.53
2022-12-17T09:11:06.758Z,20.87
2022-12-17T09:13:52.204Z,21.33
2022-12-17T09:16:37.887Z,21.37
2022-12-17T09:19:23.079Z,19.07
2022-12-17T09:22:08.333Z,19.47
2022-12-17T09:24:53.498Z,19.57
2022-12-17T09:27:38.891Z,18.73
2022-12-17T09:30:24.548Z,20.00
2022-12-17T09:33:09.694Z,18.43
2022-12-17T09:35:58.452Z,18.70
2022-12-17T09:38:43.480Z,18.33
2022-12-17T09:41:45.426Z,16.73
2022-12-17T09:44:50.573Z,15.60
2022-12-17T09:48:07.036Z,15.93
2022-12-17T09:50:52.338Z,14.70
2022-12-17T09:53:41.567Z,16.67
2022-12-17T09:56:28.241Z,14.87
2022-12-17T09:59:17.934Z,13.83
2022-12-17T10:02:03.500Z,13.60
2022-12-17T10:04:53.434Z,13.67
2022-12-17T10:07:43.269Z,14.63
2022-12-17T10:10:37.158Z,14.33
2022-12-17T10:13:30.815Z,13.93
2022-12-17T10:16:16.011Z,13.37
2022-12-17T10:19:01.270Z,14.07
2022-12-17T10:21:47.496Z,13.43
2022-12-17T10:24:32.928Z,12.70
2022-12-17T10:27:18.266Z,12.27
2022-12-17T10:30:04.064Z,13.10
2022-12-17T10:32:49.261Z,13.77
2022-12-17T10:35:53.197Z,11.40
2022-12-17T10:38:46.242Z,11.57
2022-12-17T10:41:44.042Z,11.47
2022-12-17T10:44:41.877Z,11.43
2022-12-17T10:47:34.618Z,11.00
2022-12-17T10:50:20.881Z,13.07
2022-12-17T10:53:06.589Z,11.00
2022-12-17T10:55:52.471Z,12.57
2022-12-17T10:58:40.440Z,11.43
2022-12-17T11:01:28.037Z,12.30
2022-12-17T11:04:16.835Z,11.60
2022-12-17T11:07:04.739Z,13.30
2022-12-17T11:10:09.453Z,10.93
2022-12-17T11:13:03.282Z,11.10
2022-12-17T11:16:11.077Z,11.33
2022-12-17T11:19:17.721Z,11.07
2022-12-17T11:22:14.587Z,11.03
2022-12-17T11:25:05.464Z,10.30
2022-12-17T11:27:53.177Z,10.00
2022-12-17T11:30:38.322Z,10.47
2022-12-17T11:33:37.771Z,10.37
2022-12-17T11:36:39.186Z,10.50
2022-12-17T11:39:39.932Z,10.27
2022-12-17T11:42:37.539Z,11.80
2022-12-17T11:45:28.851Z,12.30
2022-12-17T11:48:28.673Z,10.47
2022-12-17T11:51:17.472Z,11.67
2022-12-17T11:54:26.698Z,10.77
2022-12-17T11:57:21.125Z,11.63
2022-12-17T12:00:20.808Z,11.17
2022-12-17T12:03:12.688Z,11.37
2022-12-17T12:06:01.068Z,11.37
2022-12-17T12:08:51.688Z,10.83
2022-12-17T12:11:51.703Z,14.17
2022-12-17T12:14:49.203Z,25.77
2022-12-17T12:17:37.523Z,27.67
2022-12-17T12:20:35.189Z,22.43
2022-12-17T12:23:26.844Z,24.47
2022-12-17T12:26:26.717Z,22.13
2022-12-17T12:29:24.315Z,21.90
2022-12-17T12:32:40.179Z,23.03
2022-12-17T12:35:26.867Z,19.60
2022-12-17T12:38:12.197Z,19.03
2022-12-17T12:41:01.333Z,19.27
2022-12-17T12:44:07.099Z,18.07
2022-12-17T12:47:02.551Z,19.10
2022-12-17T12:50:11.087Z,17.33
2022-12-17T12:52:56.344Z,17.00
2022-12-17T12:55:41.718Z,15.23
2022-12-17T12:58:52.704Z,15.63
2022-12-17T13:01:38.685Z,15.60
2022-12-17T13:04:48.140Z,15.27
2022-12-17T13:07:26.508Z,14.57
2022-12-17T13:09:54.992Z,23.27
2022-12-17T13:12:28.362Z,29.67
2022-12-17T13:14:59.414Z,33.70
2022-12-17T13:17:32.539Z,31.93
2022-12-17T13:20:22.675Z,28.87
2022-12-17T13:22:53.868Z,28.97
2022-12-17T13:25:23.639Z,27.60
2022-12-17T13:27:50.315Z,27.17
2022-12-17T13:30:36.615Z,25.57
2022-12-17T13:33:22.144Z,31.27
2022-12-17T13:35:52.901Z,26.33
2022-12-17T13:38:44.738Z,25.87
2022-12-17T13:41:16.303Z,22.30
2022-12-17T13:43:49.565Z,26.20
2022-12-17T13:46:46.743Z,23.87
2022-12-17T13:49:28.368Z,21.43
2022-12-17T13:52:11.593Z,20.70
2022-12-17T13:54:38.569Z,21.50
2022-12-17T13:57:23.000Z,19.03
2022-12-17T13:59:53.731Z,18.90
2022-12-17T14:02:34.051Z,18.57
2022-12-17T14:05:07.468Z,18.43
2022-12-17T14:07:35.536Z,18.70
2022-12-17T14:10:02.442Z,19.30
2022-12-17T14:12:30.099Z,16.87
2022-12-17T14:15:00.161Z,18.30
2022-12-17T14:17:42.500Z,17.73
2022-12-17T14:20:13.375Z,15.87
2022-12-17T14:22:44.967Z,16.83
2022-12-17T14:25:22.740Z,15.80
2022-12-17T14:28:02.492Z,17.17
2022-12-17T14:31:02.581Z,17.33
2022-12-17T14:33:36.889Z,15.23
2022-12-17T14:36:17.529Z,14.57
2022-12-17T14:38:58.454Z,14.27
2022-12-17T14:41:43.686Z,15.97
2022-12-17T14:44:21.564Z,14.30
2022-12-17T14:46:48.392Z,14.87
2022-12-17T14:49:18.264Z,12.97
2022-12-17T14:51:45.128Z,14.40
2022-12-17T14:54:19.555Z,14.60
2022-12-17T14:56:47.513Z,13.23
2022-12-17T14:59:24.088Z,15.93
2022-12-17T15:01:55.947Z,15.80
2022-12-17T15:04:23.236Z,13.60
2022-12-17T15:06:49.913Z,12.50
2022-12-17T15:09:16.717Z,13.60
2022-12-17T15:11:43.251Z,13.03
2022-12-17T15:14:10.466Z,12.80
2022-12-17T15:16:37.475Z,13.37
2022-12-17T15:19:04.502Z,12.73
2022-12-17T15:21:31.341Z,12.90
2022-12-17T15:23:58.163Z,12.20
2022-12-17T15:26:24.882Z,11.40
2022-12-17T15:28:52.124Z,12.73
2022-12-17T15:31:24.492Z,13.20
2022-12-17T15:33:52.889Z,13.13
2022-12-17T15:36:19.576Z,12.43
2022-12-17T15:38:46.472Z,12.80
2022-12-17T15:41:31.692Z,12.20
2022-12-17T15:43:58.382Z,12.70
2022-12-17T15:46:25.299Z,13.13
2022-12-17T15:48:51.885Z,13.00
2022-12-17T15:51:21.016Z,12.57
2022-12-17T15:53:48.308Z,13.57
2022-12-17T15:56:22.849Z,13.47
2022-12-17T15:58:49.490Z,12.63
2022-12-17T16:01:16.121Z,12.70
2022-12-17T16:03:42.923Z,11.90
2022-12-17T16:06:09.612Z,11.60
2022-12-17T16:08:38.876Z,13.20
2022-12-17T16:11:09.391Z,12.90
2022-12-17T16:13:37.015Z,12.60
2022-12-17T16:16:04.542Z,12.77
2022-12-17T16:18:31.507Z,13.40
2022-12-17T16:21:08.136Z,12.90
2022-12-17T16:23:34.865Z,14.23
2022-12-17T16:26:02.322Z,13.43
2022-12-17T16:28:28.968Z,13.07
2022-12-17T16:31:00.351Z,14.00
2022-12-17T16:33:31.133Z,12.73
2022-12-17T16:36:02.100Z,13.00
2022-12-17T16:38:28.770Z,12.80
2022-12-17T16:40:56.631Z,12.63
2022-12-17T16:43:23.951Z,13.23
2022-12-17T16:45:51.134Z,12.80
2022-12-17T16:48:19.300Z,13.70
2022-12-17T16:50:46.159Z,12.70
2022-12-17T16:53:13.006Z,12.80
2022-12-17T16:55:46.613Z,12.37
2022-12-17T16:58:16.970Z,12.20
2022-12-17T17:06:31.833Z,14.03
2022-12-17T17:09:00.212Z,12.97
2022-12-17T17:11:26.820Z,13.40
2022-12-17T17:13:56.980Z,12.80
2022-12-17T17:16:24.386Z,13.47
2022-12-17T17:18:51.477Z,13.57
2022-12-17T17:21:25.242Z,13.57
2022-12-17T17:24:18.512Z,13.80
2022-12-17T17:26:47.561Z,13.30
2022-12-17T17:29:14.137Z,12.73
2022-12-17T17:34:27.272Z,13.07
2022-12-17T17:36:53.837Z,13.67
2022-12-17T17:39:20.370Z,13.97
2022-12-17T17:41:47.018Z,13.33
2022-12-17T17:44:13.994Z,13.00
2022-12-17T17:46:40.550Z,13.43
2022-12-17T17:49:07.646Z,12.87
2022-12-17T17:54:27.639Z,13.33
2022-12-17T17:56:54.209Z,12.73
2022-12-17T17:59:22.811Z,13.13
2022-12-17T18:01:51.996Z,13.83
2022-12-17T18:04:20.503Z,12.70
2022-12-17T18:07:09.088Z,13.10
2022-12-17T18:09:34.072Z,14.70
2022-12-17T18:12:20.634Z,13.50
2022-12-17T18:15:12.590Z,13.30
2022-12-17T18:17:33.709Z,14.83
2022-12-17T18:20:00.376Z,13.23
2022-12-17T18:22:28.406Z,13.77
2022-12-17T18:24:54.898Z,13.90
2022-12-17T18:27:21.467Z,14.03
2022-12-17T18:29:48.092Z,14.93
2022-12-17T18:32:14.677Z,14.30
2022-12-17T18:34:41.331Z,14.40
2022-12-17T18:37:08.015Z,14.87
2022-12-17T18:39:34.629Z,15.47
2022-12-17T18:42:19.969Z,15.87
2022-12-17T18:44:46.514Z,14.80
2022-12-17T18:47:13.117Z,15.73
2022-12-17T18:49:39.661Z,15.40
2022-12-17T18:52:07.022Z,15.43
2022-12-17T18:54:36.129Z,15.30
2022-12-17T18:57:02.929Z,15.83
2022-12-17T18:59:30.291Z,15.47
2022-12-17T19:01:57.140Z,14.87
2022-12-17T19:04:23.889Z,16.13
2022-12-17T19:06:53.792Z,14.80
2022-12-17T19:09:20.252Z,15.10
2022-12-17T19:11:46.901Z,15.23
2022-12-17T19:14:13.524Z,16.37
2022-12-17T19:16:40.132Z,16.00
2022-12-17T19:19:06.675Z,14.80
2022-12-17T19:21:33.839Z,16.20
2022-12-17T19:24:02.149Z,16.00
2022-12-17T19:26:29.096Z,16.17
2022-12-17T19:28:56.271Z,16.40
2022-12-17T19:31:24.330Z,15.87
2022-12-17T19:33:57.120Z,16.47
2022-12-17T19:36:28.306Z,17.23
2022-12-17T19:38:56.825Z,16.50
2022-12-17T19:41:23.491Z,15.20
2022-12-17T19:43:54.994Z,15.93
2022-12-17T19:46:21.735Z,16.43
2022-12-17T19:48:49.273Z,17.60
2022-12-17T19:51:21.885Z,17.00
2022-12-17T19:53:49.059Z,17.20
2022-12-17T19:56:25.854Z,16.20
2022-12-17T19:58:54.229Z,16.77
2022-12-17T20:01:27.678Z,17.33
2022-12-17T20:03:54.563Z,16.37
2022-12-17T20:06:22.506Z,17.37
2022-12-17T20:08:49.076Z,16.73
2022-12-17T20:11:34.355Z,16.53
2022-12-17T20:14:17.519Z,16.57
2022-12-17T20:16:52.130Z,16.97
2022-12-17T20:19:23.612Z,16.97
2022-12-17T20:21:50.276Z,17.40
2022-12-17T20:24:17.029Z,17.40
2022-12-17T20:26:43.875Z,17.27
2022-12-17T20:29:10.578Z,18.00
2022-12-17T20:31:37.466Z,18.27
2022-12-17T20:34:04.685Z,18.13
2022-12-17T20:36:31.319Z,18.23
2022-12-17T20:38:57.949Z,18.80
2022-12-17T20:41:26.119Z,19.37
2022-12-17T20:43:52.950Z,18.27
2022-12-17T20:46:20.052Z,17.60
2022-12-17T20:48:46.756Z,18.10
2022-12-17T20:51:21.958Z,17.87
2022-12-17T20:53:52.472Z,18.27
2022-12-17T20:56:22.552Z,19.50
2022-12-17T20:58:56.226Z,19.47
2022-12-17T21:01:23.812Z,18.47
2022-12-17T21:03:51.180Z,18.73
2022-12-17T21:06:19.805Z,18.40
2022-12-17T21:08:50.173Z,18.23
2022-12-17T21:11:21.284Z,19.47
2022-12-17T21:13:47.826Z,18.00
2022-12-17T21:16:18.276Z,20.80
2022-12-17T21:18:44.861Z,19.43
2022-12-17T21:21:13.965Z,19.17
2022-12-17T21:23:40.729Z,19.37
2022-12-17T21:26:17.436Z,18.30
2022-12-17T21:28:45.381Z,18.83
2022-12-17T21:31:23.568Z,20.07
2022-12-17T21:33:50.984Z,18.60
2022-12-17T21:36:18.913Z,21.07
2022-12-17T21:38:45.580Z,20.00
2022-12-17T21:41:14.079Z,20.80
2022-12-17T21:43:40.806Z,20.57
2022-12-17T21:46:08.042Z,19.10
2022-12-17T21:48:41.367Z,18.67
2022-12-17T21:51:09.791Z,21.87
2022-12-17T21:53:38.802Z,21.17
2022-12-17T21:56:06.765Z,20.57
2022-12-17T21:58:33.620Z,20.23
2022-12-17T22:01:17.016Z,21.37
2022-12-17T22:03:46.461Z,19.80
2022-12-17T22:06:14.875Z,19.50
2022-12-17T22:08:41.994Z,19.90
2022-12-17T22:11:10.303Z,20.90
2022-12-17T22:14:01.806Z,19.10
2022-12-17T22:16:36.792Z,19.53
2022-12-17T22:19:07.636Z,19.63
2022-12-17T22:21:35.163Z,20.27
2022-12-17T22:24:01.812Z,20.17
2022-12-17T22:26:28.494Z,19.47
2022-12-17T22:28:55.165Z,19.60
2022-12-17T22:31:40.577Z,20.30
2022-12-17T22:35:14.506Z,19.63
2022-12-17T22:38:53.840Z,22.00
2022-12-17T22:43:19.355Z,20.03
2022-12-17T22:44:42.606Z,20.23
2022-12-17T22:45:38.282Z,19.00
2022-12-17T22:48:05.495Z,20.10
2022-12-17T22:50:36.079Z,19.23
2022-12-17T22:53:13.781Z,19.67
2022-12-17T22:55:40.737Z,20.90
2022-12-17T22:58:07.639Z,20.80
2022-12-17T23:00:34.994Z,18.97
2022-12-17T23:03:01.729Z,21.07
2022-12-17T23:05:28.764Z,18.33
2022-12-17T23:07:55.425Z,20.00
2022-12-17T23:10:22.013Z,18.47
2022-12-17T23:12:51.507Z,18.87
2022-12-17T23:15:24.663Z,18.77
2022-12-17T23:17:52.316Z,18.07
2022-12-17T23:20:18.966Z,19.67
2022-12-17T23:22:45.556Z,18.53
2022-12-17T23:25:12.155Z,19.23
2022-12-17T23:27:38.702Z,18.80
2022-12-17T23:30:09.160Z,18.87
2022-12-17T23:32:35.798Z,19.13
2022-12-17T23:35:02.413Z,19.57
2022-12-17T23:37:29.129Z,18.83
2022-12-17T23:39:55.824Z,18.27
2022-12-17T23:42:22.389Z,18.20
2022-12-17T23:44:48.967Z,19.30
2022-12-17T23:47:15.496Z,18.67
2022-12-17T23:49:42.153Z,19.17
2022-12-17T23:52:08.859Z,17.73
2022-12-17T23:54:36.029Z,18.10
2022-12-17T23:57:02.657Z,17.57
2022-12-17T23:59:29.188Z,18.23
